sensor_id;sensor_type;location;lat;lon;timestamp;temperature;humidity
67598;DHT22;62026;39.230;9.122;2023-02-18T00:01:24;11.80;67.90
67598;DHT22;62026;39.230;9.122;2023-02-18T00:03:51;11.90;67.20
67598;DHT22;62026;39.230;9.122;2023-02-18T00:06:32;12.00;66.80
67598;DHT22;62026;39.230;9.122;2023-02-18T00:09:00;12.00;66.60
67598;DHT22;62026;39.230;9.122;2023-02-18T00:11:31;12.00;66.50
67598;DHT22;62026;39.230;9.122;2023-02-18T00:14:00;12.00;66.50
67598;DHT22;62026;39.230;9.122;2023-02-18T00:16:28;12.00;66.40
67598;DHT22;62026;39.230;9.122;2023-02-18T00:18:59;12.00;66.30
67598;DHT22;62026;39.230;9.122;2023-02-18T00:21:27;12.00;66.00
67598;DHT22;62026;39.230;9.122;2023-02-18T00:23:54;12.00;66.10
67598;DHT22;62026;39.230;9.122;2023-02-18T00:26:20;12.00;66.00
67598;DHT22;62026;39.230;9.122;2023-02-18T00:28:47;12.00;66.10
67598;DHT22;62026;39.230;9.122;2023-02-18T00:31:20;12.00;65.90
67598;DHT22;62026;39.230;9.122;2023-02-18T00:33:51;11.90;66.00
67598;DHT22;62026;39.230;9.122;2023-02-18T00:36:19;11.90;65.90
67598;DHT22;62026;39.230;9.122;2023-02-18T00:38:48;11.90;65.80
67598;DHT22;62026;39.230;9.122;2023-02-18T00:41:18;12.00;65.70
67598;DHT22;62026;39.230;9.122;2023-02-18T00:43:47;11.90;65.70
67598;DHT22;62026;39.230;9.122;2023-02-18T00:46:13;11.90;65.50
67598;DHT22;62026;39.230;9.122;2023-02-18T00:48:40;11.90;65.50
67598;DHT22;62026;39.230;9.122;2023-02-18T00:51:08;11.90;65.30
67598;DHT22;62026;39.230;9.122;2023-02-18T00:53:35;11.90;65.20
67598;DHT22;62026;39.230;9.122;2023-02-18T00:56:02;11.90;65.00
67598;DHT22;62026;39.230;9.122;2023-02-18T00:58:29;11.80;64.90
67598;DHT22;62026;39.230;9.122;2023-02-18T01:00:55;11.80;64.80
67598;DHT22;62026;39.230;9.122;2023-02-18T01:03:22;11.70;64.70
67598;DHT22;62026;39.230;9.122;2023-02-18T01:05:49;11.70;64.50
67598;DHT22;62026;39.230;9.122;2023-02-18T01:08:18;11.70;64.30
67598;DHT22;62026;39.230;9.122;2023-02-18T01:10:47;11.70;64.20
67598;DHT22;62026;39.230;9.122;2023-02-18T01:13:15;11.60;64.00
67598;DHT22;62026;39.230;9.122;2023-02-18T01:15:41;11.60;63.90
67598;DHT22;62026;39.230;9.122;2023-02-18T01:18:10;11.60;64.00
67598;DHT22;62026;39.230;9.122;2023-02-18T01:20:37;11.60;63.80
67598;DHT22;62026;39.230;9.122;2023-02-18T01:23:06;11.50;63.80
67598;DHT22;62026;39.230;9.122;2023-02-18T01:25:34;11.50;63.80
67598;DHT22;62026;39.230;9.122;2023-02-18T01:28:00;11.50;63.80
67598;DHT22;62026;39.230;9.122;2023-02-18T01:30:27;11.50;63.80
67598;DHT22;62026;39.230;9.122;2023-02-18T01:32:55;11.40;64.00
67598;DHT22;62026;39.230;9.122;2023-02-18T01:35:21;11.50;64.00
67598;DHT22;62026;39.230;9.122;2023-02-18T01:37:49;11.50;64.00
67598;DHT22;62026;39.230;9.122;2023-02-18T01:40:19;11.40;64.00
67598;DHT22;62026;39.230;9.122;2023-02-18T01:42:48;11.40;64.20
67598;DHT22;62026;39.230;9.122;2023-02-18T01:48:22;11.40;64.40
67598;DHT22;62026;39.230;9.122;2023-02-18T01:51:22;11.40;64.40
67598;DHT22;62026;39.230;9.122;2023-02-18T01:54:15;11.40;64.40
67598;DHT22;62026;39.230;9.122;2023-02-18T01:56:56;11.40;64.50
67598;DHT22;62026;39.230;9.122;2023-02-18T01:59:30;11.30;64.60
67598;DHT22;62026;39.230;9.122;2023-02-18T02:01:59;11.30;64.80
67598;DHT22;62026;39.230;9.122;2023-02-18T02:04:28;11.30;64.70
67598;DHT22;62026;39.230;9.122;2023-02-18T02:06:54;11.30;64.70
67598;DHT22;62026;39.230;9.122;2023-02-18T02:09:23;11.30;64.90
67598;DHT22;62026;39.230;9.122;2023-02-18T02:30:40;11.10;64.80
67598;DHT22;62026;39.230;9.122;2023-02-18T02:33:24;11.10;65.00
67598;DHT22;62026;39.230;9.122;2023-02-18T02:36:21;11.10;65.00
67598;DHT22;62026;39.230;9.122;2023-02-18T02:44:41;11.00;65.20
67598;DHT22;62026;39.230;9.122;2023-02-18T02:47:35;11.00;65.40
67598;DHT22;62026;39.230;9.122;2023-02-18T02:50:21;11.00;65.40
67598;DHT22;62026;39.230;9.122;2023-02-18T02:53:01;11.00;65.20
67598;DHT22;62026;39.230;9.122;2023-02-18T02:55:38;11.00;65.20
67598;DHT22;62026;39.230;9.122;2023-02-18T02:58:04;11.10;65.10
67598;DHT22;62026;39.230;9.122;2023-02-18T03:15:40;10.90;65.60
67598;DHT22;62026;39.230;9.122;2023-02-18T03:18:23;10.90;65.60
67598;DHT22;62026;39.230;9.122;2023-02-18T03:24:02;10.90;65.60
67598;DHT22;62026;39.230;9.122;2023-02-18T03:26:36;10.90;65.80
67598;DHT22;62026;39.230;9.122;2023-02-18T03:29:07;10.90;65.70
67598;DHT22;62026;39.230;9.122;2023-02-18T03:31:37;10.80;65.60
67598;DHT22;62026;39.230;9.122;2023-02-18T03:34:10;10.80;65.60
67598;DHT22;62026;39.230;9.122;2023-02-18T03:36:41;10.80;65.60
67598;DHT22;62026;39.230;9.122;2023-02-18T03:39:13;10.80;65.60
67598;DHT22;62026;39.230;9.122;2023-02-18T03:41:42;10.80;65.40
67598;DHT22;62026;39.230;9.122;2023-02-18T03:44:09;10.80;65.40
67598;DHT22;62026;39.230;9.122;2023-02-18T03:46:39;10.80;65.40
67598;DHT22;62026;39.230;9.122;2023-02-18T03:49:11;10.80;65.30
67598;DHT22;62026;39.230;9.122;2023-02-18T03:51:39;10.80;65.30
67598;DHT22;62026;39.230;9.122;2023-02-18T03:54:07;10.80;65.20
67598;DHT22;62026;39.230;9.122;2023-02-18T03:56:34;10.80;65.30
67598;DHT22;62026;39.230;9.122;2023-02-18T03:59:02;10.70;65.40
67598;DHT22;62026;39.230;9.122;2023-02-18T04:01:29;10.80;65.30
67598;DHT22;62026;39.230;9.122;2023-02-18T04:03:55;10.70;65.40
67598;DHT22;62026;39.230;9.122;2023-02-18T04:06:22;10.70;65.50
67598;DHT22;62026;39.230;9.122;2023-02-18T04:08:48;10.70;65.50
67598;DHT22;62026;39.230;9.122;2023-02-18T04:11:14;10.70;65.50
67598;DHT22;62026;39.230;9.122;2023-02-18T04:13:41;10.70;65.60
67598;DHT22;62026;39.230;9.122;2023-02-18T04:16:07;10.70;65.60
67598;DHT22;62026;39.230;9.122;2023-02-18T04:18:33;10.70;65.70
67598;DHT22;62026;39.230;9.122;2023-02-18T04:20:59;10.70;65.80
67598;DHT22;62026;39.230;9.122;2023-02-18T04:23:25;10.80;65.90
67598;DHT22;62026;39.230;9.122;2023-02-18T04:25:51;10.80;66.00
67598;DHT22;62026;39.230;9.122;2023-02-18T04:28:17;10.70;66.00
67598;DHT22;62026;39.230;9.122;2023-02-18T04:30:45;10.70;66.20
67598;DHT22;62026;39.230;9.122;2023-02-18T04:33:12;10.70;66.30
67598;DHT22;62026;39.230;9.122;2023-02-18T04:35:39;10.70;66.30
67598;DHT22;62026;39.230;9.122;2023-02-18T04:38:07;10.70;66.30
67598;DHT22;62026;39.230;9.122;2023-02-18T04:40:34;10.70;66.30
67598;DHT22;62026;39.230;9.122;2023-02-18T04:43:01;10.70;66.10
67598;DHT22;62026;39.230;9.122;2023-02-18T04:45:27;10.70;66.20
67598;DHT22;62026;39.230;9.122;2023-02-18T04:47:53;10.70;66.20
67598;DHT22;62026;39.230;9.122;2023-02-18T04:50:20;10.70;66.10
67598;DHT22;62026;39.230;9.122;2023-02-18T04:52:48;10.70;66.10
67598;DHT22;62026;39.230;9.122;2023-02-18T04:55:14;10.60;65.90
67598;DHT22;62026;39.230;9.122;2023-02-18T04:57:39;10.60;66.10
67598;DHT22;62026;39.230;9.122;2023-02-18T05:00:07;10.60;66.00
67598;DHT22;62026;39.230;9.122;2023-02-18T05:02:38;10.60;66.00
67598;DHT22;62026;39.230;9.122;2023-02-18T05:05:04;10.50;65.90
67598;DHT22;62026;39.230;9.122;2023-02-18T05:07:31;10.50;65.90
67598;DHT22;62026;39.230;9.122;2023-02-18T05:09:56;10.50;65.80
67598;DHT22;62026;39.230;9.122;2023-02-18T05:12:22;10.50;66.00
67598;DHT22;62026;39.230;9.122;2023-02-18T05:14:48;10.50;66.10
67598;DHT22;62026;39.230;9.122;2023-02-18T05:17:14;10.50;66.30
67598;DHT22;62026;39.230;9.122;2023-02-18T05:19:40;10.50;66.40
67598;DHT22;62026;39.230;9.122;2023-02-18T05:22:06;10.40;66.50
67598;DHT22;62026;39.230;9.122;2023-02-18T05:24:32;10.40;66.70
67598;DHT22;62026;39.230;9.122;2023-02-18T05:26:58;10.40;66.70
67598;DHT22;62026;39.230;9.122;2023-02-18T05:29:24;10.40;66.70
67598;DHT22;62026;39.230;9.122;2023-02-18T05:31:50;10.40;66.80
67598;DHT22;62026;39.230;9.122;2023-02-18T05:34:16;10.40;66.80
67598;DHT22;62026;39.230;9.122;2023-02-18T05:36:42;10.40;66.80
67598;DHT22;62026;39.230;9.122;2023-02-18T05:39:08;10.40;67.00
67598;DHT22;62026;39.230;9.122;2023-02-18T05:41:34;10.30;67.00
67598;DHT22;62026;39.230;9.122;2023-02-18T05:44:00;10.30;67.10
67598;DHT22;62026;39.230;9.122;2023-02-18T05:46:44;10.30;67.20
67598;DHT22;62026;39.230;9.122;2023-02-18T05:49:11;10.30;67.30
67598;DHT22;62026;39.230;9.122;2023-02-18T05:51:37;10.30;67.20
67598;DHT22;62026;39.230;9.122;2023-02-18T05:54:03;10.30;67.30
67598;DHT22;62026;39.230;9.122;2023-02-18T05:56:29;10.30;67.40
67598;DHT22;62026;39.230;9.122;2023-02-18T05:58:55;10.30;67.30
67598;DHT22;62026;39.230;9.122;2023-02-18T06:01:21;10.30;67.30
67598;DHT22;62026;39.230;9.122;2023-02-18T06:03:47;10.30;67.30
67598;DHT22;62026;39.230;9.122;2023-02-18T06:06:13;10.20;67.50
67598;DHT22;62026;39.230;9.122;2023-02-18T06:08:39;10.20;67.60
67598;DHT22;62026;39.230;9.122;2023-02-18T06:11:05;10.20;67.50
67598;DHT22;62026;39.230;9.122;2023-02-18T06:13:31;10.20;67.70
67598;DHT22;62026;39.230;9.122;2023-02-18T06:15:57;10.20;67.70
67598;DHT22;62026;39.230;9.122;2023-02-18T06:18:23;10.20;67.60
67598;DHT22;62026;39.230;9.122;2023-02-18T06:20:50;10.20;67.70
67598;DHT22;62026;39.230;9.122;2023-02-18T06:23:16;10.20;67.70
67598;DHT22;62026;39.230;9.122;2023-02-18T06:25:42;10.30;67.60
67598;DHT22;62026;39.230;9.122;2023-02-18T06:28:08;10.30;67.80
67598;DHT22;62026;39.230;9.122;2023-02-18T06:30:34;10.30;67.60
67598;DHT22;62026;39.230;9.122;2023-02-18T06:33:00;10.30;67.60
67598;DHT22;62026;39.230;9.122;2023-02-18T06:35:29;10.30;67.60
67598;DHT22;62026;39.230;9.122;2023-02-18T06:37:55;10.30;67.70
67598;DHT22;62026;39.230;9.122;2023-02-18T06:40:21;10.40;67.60
67598;DHT22;62026;39.230;9.122;2023-02-18T06:42:47;10.50;67.50
67598;DHT22;62026;39.230;9.122;2023-02-18T06:45:13;10.50;67.70
67598;DHT22;62026;39.230;9.122;2023-02-18T06:47:39;10.50;67.50
67598;DHT22;62026;39.230;9.122;2023-02-18T06:50:05;10.60;67.40
67598;DHT22;62026;39.230;9.122;2023-02-18T06:52:32;10.70;67.40
67598;DHT22;62026;39.230;9.122;2023-02-18T06:54:59;10.70;67.30
67598;DHT22;62026;39.230;9.122;2023-02-18T06:57:25;10.80;67.30
67598;DHT22;62026;39.230;9.122;2023-02-18T06:59:51;10.80;67.20
67598;DHT22;62026;39.230;9.122;2023-02-18T07:02:17;10.90;67.10
67598;DHT22;62026;39.230;9.122;2023-02-18T07:04:43;11.00;67.00
67598;DHT22;62026;39.230;9.122;2023-02-18T07:07:11;11.10;66.70
67598;DHT22;62026;39.230;9.122;2023-02-18T07:09:37;11.10;66.40
67598;DHT22;62026;39.230;9.122;2023-02-18T07:12:03;11.20;66.30
67598;DHT22;62026;39.230;9.122;2023-02-18T07:14:29;11.20;66.10
67598;DHT22;62026;39.230;9.122;2023-02-18T07:16:55;11.30;65.80
67598;DHT22;62026;39.230;9.122;2023-02-18T07:19:21;11.40;65.40
67598;DHT22;62026;39.230;9.122;2023-02-18T07:21:47;11.50;64.90
67598;DHT22;62026;39.230;9.122;2023-02-18T07:24:13;11.60;64.40
67598;DHT22;62026;39.230;9.122;2023-02-18T07:26:39;11.60;64.00
67598;DHT22;62026;39.230;9.122;2023-02-18T07:29:05;11.70;63.70
67598;DHT22;62026;39.230;9.122;2023-02-18T07:31:31;11.70;63.60
67598;DHT22;62026;39.230;9.122;2023-02-18T07:33:57;11.80;63.00
67598;DHT22;62026;39.230;9.122;2023-02-18T07:36:23;11.90;62.80
67598;DHT22;62026;39.230;9.122;2023-02-18T07:38:49;12.00;62.40
67598;DHT22;62026;39.230;9.122;2023-02-18T07:41:18;12.10;61.80
67598;DHT22;62026;39.230;9.122;2023-02-18T07:43:45;12.10;61.60
67598;DHT22;62026;39.230;9.122;2023-02-18T07:46:12;12.20;61.40
67598;DHT22;62026;39.230;9.122;2023-02-18T07:48:38;12.30;61.40
67598;DHT22;62026;39.230;9.122;2023-02-18T07:51:09;12.60;61.20
67598;DHT22;62026;39.230;9.122;2023-02-18T07:53:37;13.00;60.20
67598;DHT22;62026;39.230;9.122;2023-02-18T07:56:04;13.10;59.90
67598;DHT22;62026;39.230;9.122;2023-02-18T07:58:33;13.20;59.50
67598;DHT22;62026;39.230;9.122;2023-02-18T08:01:05;13.40;59.20
67598;DHT22;62026;39.230;9.122;2023-02-18T08:03:33;13.50;59.00
67598;DHT22;62026;39.230;9.122;2023-02-18T08:06:01;13.60;59.00
67598;DHT22;62026;39.230;9.122;2023-02-18T08:08:30;13.90;58.30
67598;DHT22;62026;39.230;9.122;2023-02-18T08:11:00;14.10;57.90
67598;DHT22;62026;39.230;9.122;2023-02-18T08:13:32;14.10;57.60
67598;DHT22;62026;39.230;9.122;2023-02-18T08:15:58;14.20;57.80
67598;DHT22;62026;39.230;9.122;2023-02-18T08:18:25;14.50;57.50
67598;DHT22;62026;39.230;9.122;2023-02-18T08:20:52;14.70;57.20
67598;DHT22;62026;39.230;9.122;2023-02-18T08:23:19;14.80;57.20
67598;DHT22;62026;39.230;9.122;2023-02-18T08:25:48;15.00;57.10
67598;DHT22;62026;39.230;9.122;2023-02-18T08:28:17;15.00;57.00
67598;DHT22;62026;39.230;9.122;2023-02-18T08:30:45;15.10;56.80
67598;DHT22;62026;39.230;9.122;2023-02-18T08:33:13;15.30;56.80
67598;DHT22;62026;39.230;9.122;2023-02-18T08:35:40;15.40;56.30
67598;DHT22;62026;39.230;9.122;2023-02-18T08:38:08;15.60;55.90
67598;DHT22;62026;39.230;9.122;2023-02-18T08:40:34;15.70;55.80
67598;DHT22;62026;39.230;9.122;2023-02-18T08:43:00;15.90;55.20
67598;DHT22;62026;39.230;9.122;2023-02-18T08:45:26;16.10;55.00
67598;DHT22;62026;39.230;9.122;2023-02-18T08:47:52;16.20;54.70
67598;DHT22;62026;39.230;9.122;2023-02-18T08:50:18;16.30;54.70
67598;DHT22;62026;39.230;9.122;2023-02-18T08:52:46;16.50;54.50
67598;DHT22;62026;39.230;9.122;2023-02-18T08:55:12;16.70;54.20
67598;DHT22;62026;39.230;9.122;2023-02-18T08:57:39;16.70;54.30
67598;DHT22;62026;39.230;9.122;2023-02-18T09:00:05;17.10;54.10
67598;DHT22;62026;39.230;9.122;2023-02-18T09:02:31;17.40;55.50
67598;DHT22;62026;39.230;9.122;2023-02-18T09:04:57;17.60;54.20
67598;DHT22;62026;39.230;9.122;2023-02-18T09:07:23;17.50;53.70
67598;DHT22;62026;39.230;9.122;2023-02-18T09:09:49;17.40;53.30
67598;DHT22;62026;39.230;9.122;2023-02-18T09:12:15;17.40;53.00
67598;DHT22;62026;39.230;9.122;2023-02-18T09:14:41;17.60;53.00
67598;DHT22;62026;39.230;9.122;2023-02-18T09:17:07;18.00;54.60
67598;DHT22;62026;39.230;9.122;2023-02-18T09:19:33;18.20;53.70
67598;DHT22;62026;39.230;9.122;2023-02-18T09:21:59;18.30;52.10
67598;DHT22;62026;39.230;9.122;2023-02-18T09:24:25;18.40;51.90
67598;DHT22;62026;39.230;9.122;2023-02-18T09:26:51;18.30;51.60
67598;DHT22;62026;39.230;9.122;2023-02-18T09:29:18;18.30;51.60
67598;DHT22;62026;39.230;9.122;2023-02-18T09:31:44;18.30;51.40
67598;DHT22;62026;39.230;9.122;2023-02-18T09:34:10;18.40;51.40
67598;DHT22;62026;39.230;9.122;2023-02-18T09:36:37;18.40;51.00
67598;DHT22;62026;39.230;9.122;2023-02-18T09:39:05;18.50;50.80
67598;DHT22;62026;39.230;9.122;2023-02-18T09:44:28;18.60;50.80
67598;DHT22;62026;39.230;9.122;2023-02-18T09:50:18;18.30;51.20
67598;DHT22;62026;39.230;9.122;2023-02-18T09:52:47;18.10;51.20
67598;DHT22;62026;39.230;9.122;2023-02-18T09:58:18;18.40;50.10
67598;DHT22;62026;39.230;9.122;2023-02-18T10:00:50;18.50;49.90
67598;DHT22;62026;39.230;9.122;2023-02-18T10:03:30;18.60;49.40
67598;DHT22;62026;39.230;9.122;2023-02-18T10:06:11;18.40;49.70
67598;DHT22;62026;39.230;9.122;2023-02-18T10:08:46;18.20;50.40
67598;DHT22;62026;39.230;9.122;2023-02-18T10:13:54;18.00;50.50
67598;DHT22;62026;39.230;9.122;2023-02-18T10:16:23;18.00;50.60
67598;DHT22;62026;39.230;9.122;2023-02-18T10:18:54;17.80;50.50
67598;DHT22;62026;39.230;9.122;2023-02-18T10:21:32;17.80;50.50
67598;DHT22;62026;39.230;9.122;2023-02-18T10:24:13;17.80;50.00
67598;DHT22;62026;39.230;9.122;2023-02-18T10:26:55;17.90;50.00
67598;DHT22;62026;39.230;9.122;2023-02-18T10:29:23;18.10;49.90
67598;DHT22;62026;39.230;9.122;2023-02-18T10:37:56;18.40;49.20
67598;DHT22;62026;39.230;9.122;2023-02-18T10:49:41;18.60;48.60
67598;DHT22;62026;39.230;9.122;2023-02-18T10:52:04;18.60;48.80
67598;DHT22;62026;39.230;9.122;2023-02-18T10:54:59;18.70;48.40
67598;DHT22;62026;39.230;9.122;2023-02-18T10:57:31;18.60;48.40
67598;DHT22;62026;39.230;9.122;2023-02-18T11:00:23;18.50;48.50
67598;DHT22;62026;39.230;9.122;2023-02-18T11:03:10;18.50;48.50
67598;DHT22;62026;39.230;9.122;2023-02-18T11:05:42;18.60;49.00
67598;DHT22;62026;39.230;9.122;2023-02-18T11:08:15;18.50;48.40
67598;DHT22;62026;39.230;9.122;2023-02-18T11:10:46;18.40;48.60
67598;DHT22;62026;39.230;9.122;2023-02-18T11:13:16;18.20;48.90
67598;DHT22;62026;39.230;9.122;2023-02-18T11:16:06;18.10;49.10
67598;DHT22;62026;39.230;9.122;2023-02-18T11:18:39;18.00;49.30
67598;DHT22;62026;39.230;9.122;2023-02-18T11:21:28;18.00;49.20
67598;DHT22;62026;39.230;9.122;2023-02-18T11:23:57;17.90;49.40
67598;DHT22;62026;39.230;9.122;2023-02-18T11:26:33;17.90;49.60
67598;DHT22;62026;39.230;9.122;2023-02-18T11:29:06;18.00;50.00
67598;DHT22;62026;39.230;9.122;2023-02-18T11:31:44;18.00;50.00
67598;DHT22;62026;39.230;9.122;2023-02-18T11:34:19;18.00;50.10
67598;DHT22;62026;39.230;9.122;2023-02-18T11:36:48;17.90;50.40
67598;DHT22;62026;39.230;9.122;2023-02-18T11:39:26;17.90;50.10
67598;DHT22;62026;39.230;9.122;2023-02-18T11:41:56;17.60;49.80
67598;DHT22;62026;39.230;9.122;2023-02-18T11:44:34;17.60;50.30
67598;DHT22;62026;39.230;9.122;2023-02-18T11:47:20;17.60;50.50
67598;DHT22;62026;39.230;9.122;2023-02-18T11:52:37;17.40;50.90
67598;DHT22;62026;39.230;9.122;2023-02-18T11:55:21;17.40;51.30
67598;DHT22;62026;39.230;9.122;2023-02-18T11:58:00;17.40;51.30
67598;DHT22;62026;39.230;9.122;2023-02-18T12:00:38;17.20;51.00
67598;DHT22;62026;39.230;9.122;2023-02-18T12:05:57;17.20;51.50
67598;DHT22;62026;39.230;9.122;2023-02-18T12:08:29;17.00;51.10
67598;DHT22;62026;39.230;9.122;2023-02-18T12:11:16;16.90;51.50
67598;DHT22;62026;39.230;9.122;2023-02-18T12:13:55;16.90;51.90
67598;DHT22;62026;39.230;9.122;2023-02-18T12:16:36;16.90;52.10
67598;DHT22;62026;39.230;9.122;2023-02-18T12:33:20;16.50;52.80
67598;DHT22;62026;39.230;9.122;2023-02-18T12:39:00;16.50;53.30
67598;DHT22;62026;39.230;9.122;2023-02-18T12:55:42;16.30;53.50
67598;DHT22;62026;39.230;9.122;2023-02-18T13:13:10;16.10;54.20
67598;DHT22;62026;39.230;9.122;2023-02-18T13:15:52;16.00;54.60
67598;DHT22;62026;39.230;9.122;2023-02-18T13:18:32;16.00;54.70
67598;DHT22;62026;39.230;9.122;2023-02-18T13:21:08;16.00;54.60
67598;DHT22;62026;39.230;9.122;2023-02-18T13:23:59;16.10;54.60
67598;DHT22;62026;39.230;9.122;2023-02-18T13:26:29;16.10;54.80
67598;DHT22;62026;39.230;9.122;2023-02-18T13:34:51;16.00;55.20
67598;DHT22;62026;39.230;9.122;2023-02-18T13:40:36;16.00;55.10
67598;DHT22;62026;39.230;9.122;2023-02-18T13:43:31;16.00;55.20
67598;DHT22;62026;39.230;9.122;2023-02-18T13:51:12;15.80;56.10
67598;DHT22;62026;39.230;9.122;2023-02-18T13:53:43;15.90;56.00
67598;DHT22;62026;39.230;9.122;2023-02-18T13:56:21;15.90;56.00
67598;DHT22;62026;39.230;9.122;2023-02-18T13:58:54;15.80;55.80
67598;DHT22;62026;39.230;9.122;2023-02-18T14:01:49;15.80;56.10
67598;DHT22;62026;39.230;9.122;2023-02-18T14:04:57;15.70;56.10
67598;DHT22;62026;39.230;9.122;2023-02-18T14:07:46;15.80;56.30
67598;DHT22;62026;39.230;9.122;2023-02-18T14:15:50;15.70;56.30
67598;DHT22;62026;39.230;9.122;2023-02-18T14:18:24;15.70;56.80
67598;DHT22;62026;39.230;9.122;2023-02-18T14:21:49;15.70;57.00
67598;DHT22;62026;39.230;9.122;2023-02-18T14:24:11;15.70;57.10
67598;DHT22;62026;39.230;9.122;2023-02-18T14:26:48;15.80;56.90
67598;DHT22;62026;39.230;9.122;2023-02-18T14:29:34;15.70;56.80
67598;DHT22;62026;39.230;9.122;2023-02-18T14:32:09;15.80;57.20
67598;DHT22;62026;39.230;9.122;2023-02-18T14:38:19;15.70;58.40
67598;DHT22;62026;39.230;9.122;2023-02-18T14:44:35;15.70;58.50
67598;DHT22;62026;39.230;9.122;2023-02-18T14:47:46;15.70;58.80
67598;DHT22;62026;39.230;9.122;2023-02-18T14:50:20;15.60;58.80
67598;DHT22;62026;39.230;9.122;2023-02-18T14:52:57;15.60;59.00
67598;DHT22;62026;39.230;9.122;2023-02-18T14:55:34;15.60;59.10
67598;DHT22;62026;39.230;9.122;2023-02-18T14:58:34;15.50;59.50
67598;DHT22;62026;39.230;9.122;2023-02-18T15:03:52;15.30;60.20
67598;DHT22;62026;39.230;9.122;2023-02-18T15:06:33;15.30;60.40
67598;DHT22;62026;39.230;9.122;2023-02-18T15:11:43;15.20;61.20
67598;DHT22;62026;39.230;9.122;2023-02-18T15:14:26;15.30;61.10
67598;DHT22;62026;39.230;9.122;2023-02-18T15:16:56;15.30;61.30
67598;DHT22;62026;39.230;9.122;2023-02-18T15:19:26;15.20;61.30
67598;DHT22;62026;39.230;9.122;2023-02-18T15:21:56;15.20;61.00
67598;DHT22;62026;39.230;9.122;2023-02-18T15:24:25;15.10;61.30
67598;DHT22;62026;39.230;9.122;2023-02-18T15:26:59;15.00;62.00
67598;DHT22;62026;39.230;9.122;2023-02-18T15:29:30;15.00;62.60
67598;DHT22;62026;39.230;9.122;2023-02-18T15:31:59;15.00;62.80
67598;DHT22;62026;39.230;9.122;2023-02-18T15:34:36;15.10;62.60
67598;DHT22;62026;39.230;9.122;2023-02-18T15:37:08;15.00;62.70
67598;DHT22;62026;39.230;9.122;2023-02-18T15:39:38;14.90;62.70
67598;DHT22;62026;39.230;9.122;2023-02-18T15:42:30;15.00;63.00
67598;DHT22;62026;39.230;9.122;2023-02-18T15:47:44;14.90;63.30
67598;DHT22;62026;39.230;9.122;2023-02-18T15:52:46;14.90;63.30
67598;DHT22;62026;39.230;9.122;2023-02-18T15:55:40;15.00;63.50
67598;DHT22;62026;39.230;9.122;2023-02-18T15:58:14;14.90;63.50
67598;DHT22;62026;39.230;9.122;2023-02-18T16:00:57;14.90;63.70
67598;DHT22;62026;39.230;9.122;2023-02-18T16:06:29;14.90;63.90
67598;DHT22;62026;39.230;9.122;2023-02-18T16:11:36;14.90;64.00
67598;DHT22;62026;39.230;9.122;2023-02-18T16:14:05;14.80;64.30
67598;DHT22;62026;39.230;9.122;2023-02-18T16:16:36;14.80;64.30
67598;DHT22;62026;39.230;9.122;2023-02-18T16:19:04;14.90;64.30
67598;DHT22;62026;39.230;9.122;2023-02-18T16:24:00;14.80;64.60
67598;DHT22;62026;39.230;9.122;2023-02-18T16:26:41;14.80;64.70
67598;DHT22;62026;39.230;9.122;2023-02-18T16:29:13;14.80;64.70
67598;DHT22;62026;39.230;9.122;2023-02-18T16:31:45;14.70;64.90
67598;DHT22;62026;39.230;9.122;2023-02-18T16:34:11;14.70;64.90
67598;DHT22;62026;39.230;9.122;2023-02-18T16:36:37;14.70;64.90
67598;DHT22;62026;39.230;9.122;2023-02-18T16:39:23;14.70;65.10
67598;DHT22;62026;39.230;9.122;2023-02-18T16:41:49;14.70;65.20
67598;DHT22;62026;39.230;9.122;2023-02-18T16:44:15;14.70;65.20
67598;DHT22;62026;39.230;9.122;2023-02-18T16:46:41;14.70;65.40
67598;DHT22;62026;39.230;9.122;2023-02-18T16:49:11;14.70;65.20
67598;DHT22;62026;39.230;9.122;2023-02-18T16:51:39;14.70;65.50
67598;DHT22;62026;39.230;9.122;2023-02-18T16:54:11;14.70;65.40
67598;DHT22;62026;39.230;9.122;2023-02-18T16:56:38;14.60;65.50
67598;DHT22;62026;39.230;9.122;2023-02-18T16:59:05;14.60;65.60
67598;DHT22;62026;39.230;9.122;2023-02-18T17:01:40;14.60;65.50
67598;DHT22;62026;39.230;9.122;2023-02-18T17:04:16;14.70;65.60
67598;DHT22;62026;39.230;9.122;2023-02-18T17:06:44;14.60;65.90
67598;DHT22;62026;39.230;9.122;2023-02-18T17:09:18;14.50;66.10
67598;DHT22;62026;39.230;9.122;2023-02-18T17:11:49;14.50;66.30
67598;DHT22;62026;39.230;9.122;2023-02-18T17:14:18;14.50;66.30
67598;DHT22;62026;39.230;9.122;2023-02-18T17:16:49;14.50;66.20
67598;DHT22;62026;39.230;9.122;2023-02-18T17:19:17;14.50;66.40
67598;DHT22;62026;39.230;9.122;2023-02-18T17:21:43;14.40;66.70
67598;DHT22;62026;39.230;9.122;2023-02-18T17:24:14;14.30;67.00
67598;DHT22;62026;39.230;9.122;2023-02-18T17:26:42;14.30;67.00
67598;DHT22;62026;39.230;9.122;2023-02-18T17:29:09;14.30;67.20
67598;DHT22;62026;39.230;9.122;2023-02-18T17:31:40;14.30;67.30
67598;DHT22;62026;39.230;9.122;2023-02-18T17:34:14;14.30;67.30
67598;DHT22;62026;39.230;9.122;2023-02-18T17:36:46;14.30;66.90
67598;DHT22;62026;39.230;9.122;2023-02-18T17:39:13;14.30;67.20
67598;DHT22;62026;39.230;9.122;2023-02-18T17:41:41;14.30;67.40
67598;DHT22;62026;39.230;9.122;2023-02-18T17:44:19;14.30;67.50
67598;DHT22;62026;39.230;9.122;2023-02-18T17:46:47;14.30;67.50
67598;DHT22;62026;39.230;9.122;2023-02-18T17:49:16;14.30;67.50
67598;DHT22;62026;39.230;9.122;2023-02-18T17:51:43;14.30;67.50
67598;DHT22;62026;39.230;9.122;2023-02-18T17:54:12;14.20;67.50
67598;DHT22;62026;39.230;9.122;2023-02-18T17:56:42;14.20;67.70
67598;DHT22;62026;39.230;9.122;2023-02-18T17:59:09;14.20;68.00
67598;DHT22;62026;39.230;9.122;2023-02-18T18:01:35;14.20;68.10
67598;DHT22;62026;39.230;9.122;2023-02-18T18:04:01;14.20;68.00
67598;DHT22;62026;39.230;9.122;2023-02-18T18:06:28;14.20;68.10
67598;DHT22;62026;39.230;9.122;2023-02-18T18:08:54;14.20;67.90
67598;DHT22;62026;39.230;9.122;2023-02-18T18:11:24;14.20;68.00
67598;DHT22;62026;39.230;9.122;2023-02-18T18:13:51;14.20;67.90
67598;DHT22;62026;39.230;9.122;2023-02-18T18:16:20;14.10;68.10
67598;DHT22;62026;39.230;9.122;2023-02-18T18:18:46;14.20;68.10
67598;DHT22;62026;39.230;9.122;2023-02-18T18:21:31;14.20;67.90
67598;DHT22;62026;39.230;9.122;2023-02-18T18:23:59;14.20;67.90
67598;DHT22;62026;39.230;9.122;2023-02-18T18:26:26;14.20;68.00
67598;DHT22;62026;39.230;9.122;2023-02-18T18:28:52;14.20;68.00
67598;DHT22;62026;39.230;9.122;2023-02-18T18:31:18;14.20;67.70
67598;DHT22;62026;39.230;9.122;2023-02-18T18:33:46;14.20;67.60
67598;DHT22;62026;39.230;9.122;2023-02-18T18:36:16;14.10;68.00
67598;DHT22;62026;39.230;9.122;2023-02-18T18:38:44;14.10;68.00
67598;DHT22;62026;39.230;9.122;2023-02-18T18:41:16;14.10;68.10
67598;DHT22;62026;39.230;9.122;2023-02-18T18:43:44;14.10;67.80